Arispe, Iowa
Current Conditions -  °F | °C
As of 11:15 PM on Thursday 27 Nov 2014 (Local Time) from KCSQ Reporting Station
Clear Clear  
Wind Chill: 12°   Ceiling: Unl
Heat Index: 23°   Visibility: 10mi
Dew Point: 18°   Wind: 12mph
Humidity: 80%   Direction: 140°SE
Pressure: 30.24"   Gusts: NA
Location:  40.95°N, 94.22°W
Report Text: KCSQ 280515Z AUTO 14010KT 10SM CLR M05/M08 A3024 RMK AO2
Loading
Personal Weather Stations






























Interactive Weather Map New forecast layout! Learn more

10-Day Weather Forecast

Advertisements
Track Severe Weather on mobile